ΕΜΥ, Εθνική Μετεωρολογική Υπηρεσία - Δελτία Καιρού, Προγνώσεις

ΑΕΡΟΝΑΥΤΙΛΙΑ

GREEK AIRPORTS CODES

LGAV 151120Z 34007KT 310V010 9999 FEW025 SCT030 SCT070 18/11 Q1019 RMK NOSIG=

EUROPEAN AIRPORTS CODES

LFPO 151100Z 24010KT CAVOK 09/05 Q1006 NOSIG=